createdAt,value
2023-06-27T00:01:50.495Z,25.00
2023-06-27T00:04:17.530Z,25.00
2023-06-27T00:06:44.571Z,25.00
2023-06-27T00:09:12.210Z,25.00
2023-06-27T00:11:40.236Z,25.00
2023-06-27T00:14:10.287Z,25.00
2023-06-27T00:16:37.886Z,25.00
2023-06-27T00:19:05.529Z,25.00
2023-06-27T00:21:36.500Z,25.00
2023-06-27T00:24:04.763Z,24.90
2023-06-27T00:26:32.177Z,24.90
2023-06-27T00:28:59.443Z,24.90
2023-06-27T00:31:27.395Z,24.90
2023-06-27T00:33:54.478Z,24.90
2023-06-27T00:36:21.534Z,24.90
2023-06-27T00:38:48.496Z,24.90
2023-06-27T00:41:15.504Z,24.90
2023-06-27T00:43:42.599Z,24.90
2023-06-27T00:46:11.764Z,24.80
2023-06-27T00:48:40.249Z,24.90
2023-06-27T00:51:10.483Z,24.90
2023-06-27T00:53:38.507Z,24.90
2023-06-27T00:56:06.139Z,24.90
2023-06-27T00:58:34.645Z,24.90
2023-06-27T01:01:02.335Z,24.90
2023-06-27T01:03:34.068Z,24.80
2023-06-27T01:06:10.978Z,24.80
2023-06-27T01:08:51.116Z,24.80
2023-06-27T01:11:23.057Z,24.80
2023-06-27T01:13:56.572Z,24.80
2023-06-27T01:16:29.642Z,24.80
2023-06-27T01:19:02.020Z,24.80
2023-06-27T01:21:29.992Z,24.80
2023-06-27T01:24:07.300Z,24.80
2023-06-27T01:26:34.845Z,24.80
2023-06-27T01:29:01.930Z,24.80
2023-06-27T01:31:40.795Z,24.80
2023-06-27T01:34:13.826Z,24.80
2023-06-27T01:36:54.903Z,24.80
2023-06-27T01:39:30.813Z,24.80
2023-06-27T01:42:03.995Z,24.80
2023-06-27T01:44:34.132Z,24.80
2023-06-27T01:47:01.132Z,24.70
2023-06-27T01:49:28.155Z,24.70
2023-06-27T01:51:58.884Z,24.80
2023-06-27T01:54:26.146Z,24.70
2023-06-27T01:56:53.191Z,24.70
2023-06-27T01:59:20.165Z,24.70
2023-06-27T02:01:47.604Z,24.70
2023-06-27T02:04:14.612Z,24.70
2023-06-27T02:06:41.589Z,24.70
2023-06-27T02:09:09.386Z,24.70
2023-06-27T02:11:36.281Z,24.70
2023-06-27T02:14:03.183Z,24.70
2023-06-27T02:16:30.045Z,24.70
2023-06-27T02:18:56.930Z,24.70
2023-06-27T02:21:26.788Z,24.70
2023-06-27T02:23:53.657Z,24.70
2023-06-27T02:26:20.631Z,24.70
2023-06-27T02:28:47.681Z,24.60
2023-06-27T02:31:14.907Z,24.70
2023-06-27T02:33:41.830Z,24.70
2023-06-27T02:36:08.859Z,24.60
2023-06-27T02:38:35.794Z,24.60
2023-06-27T02:41:02.748Z,24.60
2023-06-27T02:43:29.694Z,24.60
2023-06-27T02:45:58.356Z,24.60
2023-06-27T02:48:26.526Z,24.60
2023-06-27T02:50:53.687Z,24.60
2023-06-27T02:53:21.058Z,24.60
2023-06-27T02:55:49.247Z,24.60
2023-06-27T02:58:16.220Z,24.60
2023-06-27T03:00:43.385Z,24.60
2023-06-27T03:03:10.596Z,24.60
2023-06-27T03:05:37.805Z,24.60
2023-06-27T03:08:05.051Z,24.60
2023-06-27T03:10:32.465Z,24.50
2023-06-27T03:13:00.586Z,24.60
2023-06-27T03:15:27.744Z,24.50
2023-06-27T03:17:55.081Z,24.50
2023-06-27T03:20:23.018Z,24.50
2023-06-27T03:22:49.932Z,24.50
2023-06-27T03:25:17.456Z,24.50
2023-06-27T03:27:44.569Z,24.50
2023-06-27T03:30:13.306Z,24.50
2023-06-27T03:32:41.680Z,24.50
2023-06-27T03:35:08.884Z,24.50
2023-06-27T03:37:37.013Z,24.40
2023-06-27T03:40:05.790Z,24.40
2023-06-27T03:42:32.723Z,24.40
2023-06-27T03:45:00.298Z,24.40
2023-06-27T03:47:27.465Z,24.40
2023-06-27T03:49:54.567Z,24.40
2023-06-27T03:52:21.411Z,24.40
2023-06-27T03:54:48.623Z,24.40
2023-06-27T03:57:15.631Z,24.40
2023-06-27T03:59:42.905Z,24.40
2023-06-27T04:02:09.801Z,24.40
2023-06-27T04:04:36.908Z,24.40
2023-06-27T04:07:04.049Z,24.40
2023-06-27T04:09:30.980Z,24.40
2023-06-27T04:12:00.512Z,24.40
2023-06-27T04:14:28.882Z,24.40
2023-06-27T04:16:56.014Z,24.40
2023-06-27T04:19:23.044Z,24.40
2023-06-27T04:21:49.980Z,24.40
2023-06-27T04:24:16.902Z,24.40
2023-06-27T04:26:43.907Z,24.40
2023-06-27T04:29:11.889Z,24.40
2023-06-27T04:31:39.119Z,24.40
2023-06-27T04:34:06.265Z,24.40
2023-06-27T04:36:35.275Z,24.40
2023-06-27T04:39:04.956Z,24.40
2023-06-27T04:41:31.837Z,24.40
2023-06-27T04:44:00.123Z,24.40
2023-06-27T04:46:29.612Z,24.40
2023-06-27T04:49:00.309Z,24.40
2023-06-27T04:51:29.117Z,24.40
2023-06-27T04:53:56.613Z,24.40
2023-06-27T04:56:23.934Z,24.40
2023-06-27T04:58:50.847Z,24.40
2023-06-27T05:01:17.943Z,24.40
2023-06-27T05:03:44.904Z,24.40
2023-06-27T05:06:11.791Z,24.40
2023-06-27T05:08:38.728Z,24.40
2023-06-27T05:11:05.693Z,24.50
2023-06-27T05:13:32.638Z,24.40
2023-06-27T05:15:59.859Z,24.40
2023-06-27T05:18:27.407Z,24.40
2023-06-27T05:20:55.304Z,24.40
2023-06-27T05:23:22.324Z,24.40
2023-06-27T05:25:50.701Z,24.40
2023-06-27T05:28:17.950Z,24.50
2023-06-27T05:30:45.131Z,24.50
2023-06-27T05:33:12.144Z,24.50
2023-06-27T05:35:39.450Z,24.50
2023-06-27T05:38:07.203Z,24.50
2023-06-27T05:40:34.158Z,24.50
2023-06-27T05:43:01.124Z,24.50
2023-06-27T05:45:28.115Z,24.60
2023-06-27T05:47:55.042Z,24.50
2023-06-27T05:50:21.994Z,24.60
2023-06-27T05:52:49.562Z,24.60
2023-06-27T05:55:16.583Z,24.60
2023-06-27T05:57:43.577Z,24.60
2023-06-27T06:00:12.243Z,24.60
2023-06-27T06:02:41.006Z,24.60
2023-06-27T06:05:08.737Z,24.60
2023-06-27T06:07:35.872Z,24.60
2023-06-27T06:10:03.576Z,24.60
2023-06-27T06:12:30.569Z,24.60
2023-06-27T06:14:57.570Z,24.60
2023-06-27T06:17:24.516Z,24.70
2023-06-27T06:19:51.474Z,24.70
2023-06-27T06:22:18.413Z,24.70
2023-06-27T06:24:45.360Z,24.70
2023-06-27T06:27:12.438Z,24.70
2023-06-27T06:29:39.384Z,24.70
2023-06-27T06:32:06.855Z,24.70
2023-06-27T06:34:33.744Z,24.70
2023-06-27T06:37:00.762Z,24.70
2023-06-27T06:39:27.745Z,24.70
2023-06-27T06:41:54.670Z,24.70
2023-06-27T06:44:21.596Z,24.70
2023-06-27T06:46:48.497Z,24.80
2023-06-27T06:49:15.432Z,24.80
2023-06-27T06:51:42.389Z,24.80
2023-06-27T06:54:09.350Z,24.80
2023-06-27T06:56:36.375Z,24.80
2023-06-27T06:59:04.220Z,24.80
2023-06-27T07:01:31.258Z,24.80
2023-06-27T07:03:58.702Z,24.90
2023-06-27T07:06:25.702Z,24.90
2023-06-27T07:08:53.557Z,24.90
2023-06-27T07:11:20.513Z,24.90
2023-06-27T07:13:47.411Z,24.90
2023-06-27T07:16:15.661Z,25.00
2023-06-27T07:18:43.724Z,25.00
2023-06-27T07:21:10.775Z,25.00
2023-06-27T07:23:38.182Z,25.00
2023-06-27T07:26:05.469Z,25.10
2023-06-27T07:28:32.538Z,25.10
2023-06-27T07:30:59.556Z,25.10
2023-06-27T07:33:26.938Z,25.20
2023-06-27T07:35:54.009Z,25.20
2023-06-27T07:38:20.985Z,25.20
2023-06-27T07:40:47.876Z,25.20
2023-06-27T07:43:14.974Z,25.20
2023-06-27T07:45:41.909Z,25.20
2023-06-27T07:48:08.949Z,25.20
2023-06-27T07:50:35.970Z,25.30
2023-06-27T07:53:02.976Z,25.30
2023-06-27T07:55:29.929Z,25.30
2023-06-27T07:57:56.885Z,25.30
2023-06-27T08:00:24.172Z,25.30
2023-06-27T08:02:51.314Z,25.40
2023-06-27T08:05:19.539Z,25.40
2023-06-27T08:07:46.563Z,25.40
2023-06-27T08:10:13.517Z,25.40
2023-06-27T08:12:40.619Z,25.40
2023-06-27T08:15:08.073Z,25.40
2023-06-27T08:17:35.600Z,25.50
2023-06-27T08:20:02.623Z,25.40
2023-06-27T08:22:32.541Z,25.50
2023-06-27T08:24:59.449Z,25.50
2023-06-27T08:27:26.347Z,25.50
2023-06-27T08:29:53.226Z,25.50
2023-06-27T08:32:20.229Z,25.50
2023-06-27T08:34:47.367Z,25.50
2023-06-27T08:37:14.767Z,25.50
2023-06-27T08:39:41.893Z,25.50
2023-06-27T08:42:08.903Z,25.50
2023-06-27T08:44:35.893Z,25.50
2023-06-27T08:47:06.913Z,25.50
2023-06-27T08:49:35.980Z,25.50
2023-06-27T08:52:04.415Z,25.50
2023-06-27T08:54:40.554Z,25.50
2023-06-27T08:57:08.297Z,25.50
2023-06-27T08:59:37.032Z,25.50
2023-06-27T09:02:05.685Z,25.50
2023-06-27T09:04:36.282Z,25.50
2023-06-27T09:07:05.283Z,25.50
2023-06-27T09:09:32.487Z,25.50
2023-06-27T09:12:03.750Z,25.50
2023-06-27T09:14:30.782Z,25.50
2023-06-27T09:16:57.730Z,25.60
2023-06-27T09:19:24.713Z,25.60
2023-06-27T09:21:52.188Z,25.60
2023-06-27T09:24:26.159Z,25.60
2023-06-27T09:26:53.289Z,25.60
2023-06-27T09:29:21.138Z,25.70
2023-06-27T09:31:48.361Z,25.60
2023-06-27T09:34:15.525Z,25.60
2023-06-27T09:39:18.133Z,25.70
2023-06-27T09:41:48.007Z,25.70
2023-06-27T09:44:19.605Z,25.70
2023-06-27T09:46:47.834Z,25.70
2023-06-27T09:49:19.305Z,25.70
2023-06-27T09:51:51.454Z,25.70
2023-06-27T09:54:23.236Z,25.70
2023-06-27T09:56:51.752Z,25.70
2023-06-27T09:59:25.503Z,25.70
2023-06-27T10:01:54.913Z,25.70
2023-06-27T10:06:53.441Z,25.70
2023-06-27T10:09:20.740Z,25.70
2023-06-27T10:11:48.064Z,25.70
2023-06-27T10:14:16.124Z,25.70
2023-06-27T10:16:43.364Z,25.70
2023-06-27T10:19:10.542Z,25.70
2023-06-27T10:21:37.586Z,25.70
2023-06-27T10:24:06.043Z,25.70
2023-06-27T10:26:34.015Z,25.70
2023-06-27T10:29:13.511Z,25.70
2023-06-27T10:31:44.187Z,25.70
2023-06-27T10:34:19.930Z,25.70
2023-06-27T10:36:56.696Z,25.70
2023-06-27T10:39:32.875Z,25.70
2023-06-27T10:42:19.387Z,25.70
2023-06-27T10:44:55.570Z,25.70
2023-06-27T10:47:22.641Z,25.70
2023-06-27T10:49:50.462Z,25.70
2023-06-27T10:52:27.323Z,25.70
2023-06-27T10:55:20.257Z,25.70
2023-06-27T10:57:50.901Z,25.70
2023-06-27T11:00:30.511Z,25.70
2023-06-27T11:02:58.652Z,25.70
2023-06-27T11:05:44.033Z,25.70
2023-06-27T11:08:14.481Z,25.70
2023-06-27T11:11:06.817Z,25.80
2023-06-27T11:13:39.761Z,25.80
2023-06-27T11:16:06.870Z,25.80
2023-06-27T11:18:34.963Z,25.80
2023-06-27T11:21:03.846Z,25.80
2023-06-27T11:23:31.044Z,25.80
2023-06-27T11:25:58.084Z,25.80
2023-06-27T11:28:25.600Z,25.90
2023-06-27T11:31:00.472Z,25.90
2023-06-27T11:33:28.164Z,25.90
2023-06-27T11:35:59.905Z,25.90
2023-06-27T11:38:27.749Z,25.90
2023-06-27T11:40:54.729Z,25.90
2023-06-27T11:43:21.778Z,25.90
2023-06-27T11:45:53.764Z,25.90
2023-06-27T11:48:21.012Z,25.90
2023-06-27T11:51:08.943Z,25.90
2023-06-27T11:53:39.797Z,25.90
2023-06-27T11:56:21.317Z,26.00
2023-06-27T11:58:49.673Z,26.00
2023-06-27T12:01:18.486Z,26.00
2023-06-27T12:03:51.308Z,26.00
2023-06-27T12:06:29.861Z,26.00
2023-06-27T12:08:57.320Z,26.00
2023-06-27T12:11:36.873Z,26.00
2023-06-27T12:14:05.867Z,26.00
2023-06-27T12:16:35.222Z,26.00
2023-06-27T12:19:08.593Z,26.00
2023-06-27T12:21:35.874Z,26.00
2023-06-27T12:24:04.109Z,26.00
2023-06-27T12:26:31.570Z,26.00
2023-06-27T12:28:59.956Z,26.00
2023-06-27T12:31:27.419Z,26.00
2023-06-27T12:33:55.142Z,26.00
2023-06-27T12:36:24.400Z,26.00
2023-06-27T12:38:52.345Z,26.00
2023-06-27T12:41:20.052Z,26.00
2023-06-27T12:43:47.854Z,26.00
2023-06-27T12:46:15.489Z,26.00
2023-06-27T12:48:43.869Z,26.10
2023-06-27T12:51:12.837Z,26.10
2023-06-27T12:53:40.344Z,26.10
2023-06-27T12:56:07.860Z,26.10
2023-06-27T12:58:36.114Z,26.10
2023-06-27T13:01:03.351Z,26.10
2023-06-27T13:03:31.490Z,26.10
2023-06-27T13:05:58.919Z,26.10
2023-06-27T13:08:25.808Z,26.10
2023-06-27T13:10:53.436Z,26.10
2023-06-27T13:13:20.416Z,26.10
2023-06-27T13:18:17.348Z,26.10
2023-06-27T13:20:46.185Z,26.10
2023-06-27T13:23:13.280Z,26.10
2023-06-27T13:25:42.973Z,26.20
2023-06-27T13:28:10.212Z,26.20
2023-06-27T13:30:37.182Z,26.10
2023-06-27T13:33:04.278Z,26.20
2023-06-27T13:35:31.205Z,26.10
2023-06-27T13:38:01.918Z,26.20
2023-06-27T13:40:29.565Z,26.10
2023-06-27T13:42:57.455Z,26.20
2023-06-27T13:45:25.194Z,26.20
2023-06-27T13:47:52.614Z,26.20
2023-06-27T13:50:21.344Z,26.20
2023-06-27T13:52:48.212Z,26.20
2023-06-27T13:55:15.225Z,26.20
2023-06-27T13:57:42.167Z,26.20
2023-06-27T14:00:10.102Z,26.20
2023-06-27T14:02:39.631Z,26.10
2023-06-27T14:05:25.273Z,26.20
2023-06-27T14:07:53.080Z,26.20
2023-06-27T14:10:20.250Z,26.20
2023-06-27T14:12:47.204Z,26.20
2023-06-27T14:15:14.299Z,26.20
2023-06-27T14:17:41.515Z,26.20
2023-06-27T14:20:10.060Z,26.20
2023-06-27T14:22:37.081Z,26.20
2023-06-27T14:25:05.313Z,26.20
2023-06-27T14:27:32.431Z,26.20
2023-06-27T14:29:59.336Z,26.20
2023-06-27T14:32:26.453Z,26.20
2023-06-27T14:34:53.447Z,26.20
2023-06-27T14:37:20.419Z,26.20
2023-06-27T14:39:47.376Z,26.20
2023-06-27T14:42:14.310Z,26.20
2023-06-27T14:44:41.281Z,26.30
2023-06-27T14:47:08.511Z,26.30
2023-06-27T14:49:35.415Z,26.20
2023-06-27T14:52:02.341Z,26.20
2023-06-27T14:54:29.213Z,26.20
2023-06-27T14:56:56.110Z,26.20
2023-06-27T14:59:23.128Z,26.20
2023-06-27T15:01:49.976Z,26.20
2023-06-27T15:04:16.862Z,26.20
2023-06-27T15:06:45.069Z,26.20
2023-06-27T15:09:12.460Z,26.20
2023-06-27T15:11:39.449Z,26.30
2023-06-27T15:14:06.316Z,26.20
2023-06-27T15:16:33.228Z,26.20
2023-06-27T15:19:00.252Z,26.20
2023-06-27T15:21:27.240Z,26.30
2023-06-27T15:23:54.276Z,26.30
2023-06-27T15:26:21.239Z,26.30
2023-06-27T15:28:49.428Z,26.30
2023-06-27T15:31:16.589Z,26.30
2023-06-27T15:33:43.577Z,26.30
2023-06-27T15:36:13.352Z,26.30
2023-06-27T15:38:42.539Z,26.20
2023-06-27T15:41:09.420Z,26.20
2023-06-27T15:43:37.229Z,26.20
2023-06-27T15:46:04.391Z,26.20
2023-06-27T15:48:31.655Z,26.20
2023-06-27T15:50:59.982Z,26.20
2023-06-27T15:53:27.034Z,26.20
2023-06-27T15:55:54.229Z,26.20
2023-06-27T15:58:21.190Z,26.20
2023-06-27T16:00:48.157Z,26.20
2023-06-27T16:03:15.245Z,26.10
2023-06-27T16:05:42.294Z,26.10
2023-06-27T16:08:09.490Z,26.20
2023-06-27T16:10:36.385Z,26.10
2023-06-27T16:13:03.681Z,26.10
2023-06-27T16:15:30.789Z,26.10
2023-06-27T16:17:57.745Z,26.10
2023-06-27T16:20:25.270Z,26.10
2023-06-27T16:22:52.205Z,26.10
2023-06-27T16:25:19.178Z,26.10
2023-06-27T16:27:46.127Z,26.10
2023-06-27T16:30:13.237Z,26.10
2023-06-27T16:32:40.165Z,26.00
2023-06-27T16:35:07.777Z,26.00
2023-06-27T16:37:35.232Z,26.00
2023-06-27T16:40:02.716Z,26.00
2023-06-27T16:42:29.689Z,26.00
2023-06-27T16:44:56.596Z,26.00
2023-06-27T16:47:23.509Z,26.00
2023-06-27T16:49:50.428Z,26.00
2023-06-27T16:52:17.336Z,26.00
2023-06-27T16:54:44.261Z,26.00
2023-06-27T16:57:11.219Z,25.90
2023-06-27T16:59:38.178Z,25.90
2023-06-27T17:02:05.482Z,25.90
2023-06-27T17:04:33.090Z,25.90
2023-06-27T17:07:00.016Z,25.90
2023-06-27T17:09:26.940Z,25.90
2023-06-27T17:11:53.847Z,25.90
2023-06-27T17:14:20.958Z,25.90
2023-06-27T17:16:47.908Z,25.80
2023-06-27T17:19:14.946Z,25.80
2023-06-27T17:21:41.912Z,25.90
2023-06-27T17:24:08.882Z,25.80
2023-06-27T17:26:35.802Z,25.80
2023-06-27T17:29:02.785Z,25.80
2023-06-27T17:31:29.839Z,25.80
2023-06-27T17:33:56.856Z,25.80
2023-06-27T17:36:25.214Z,25.80
2023-06-27T17:38:53.241Z,25.70
2023-06-27T17:41:20.121Z,25.70
2023-06-27T17:43:46.986Z,25.70
2023-06-27T17:46:13.934Z,25.70
2023-06-27T17:48:40.814Z,25.70
2023-06-27T17:51:07.715Z,25.70
2023-06-27T17:53:35.093Z,25.70
2023-06-27T17:56:02.011Z,25.70
2023-06-27T17:58:28.940Z,25.70
2023-06-27T18:01:00.563Z,25.70
2023-06-27T18:03:27.647Z,25.60
2023-06-27T18:05:55.689Z,25.60
2023-06-27T18:08:22.745Z,25.60
2023-06-27T18:10:49.696Z,25.60
2023-06-27T18:13:17.488Z,25.60
2023-06-27T18:15:44.565Z,25.60
2023-06-27T18:18:11.576Z,25.60
2023-06-27T18:20:39.566Z,25.60
2023-06-27T18:23:10.423Z,25.60
2023-06-27T18:25:38.229Z,25.50
2023-06-27T18:28:05.398Z,25.50
2023-06-27T18:30:32.619Z,25.50
2023-06-27T18:33:02.098Z,25.50
2023-06-27T18:35:30.006Z,25.50
2023-06-27T18:37:58.527Z,25.50
2023-06-27T18:40:25.541Z,25.50
2023-06-27T18:42:54.743Z,25.50
2023-06-27T18:45:25.394Z,25.50
2023-06-27T18:47:53.284Z,25.40
2023-06-27T18:50:21.936Z,25.40
2023-06-27T18:52:49.647Z,25.40
2023-06-27T18:55:16.494Z,25.40
2023-06-27T18:57:43.609Z,25.40
2023-06-27T19:00:11.142Z,25.40
2023-06-27T19:02:38.558Z,25.40
2023-06-27T19:05:06.763Z,25.40
2023-06-27T19:07:34.189Z,25.30
2023-06-27T19:10:01.475Z,25.30
2023-06-27T19:12:28.459Z,25.30
2023-06-27T19:14:55.355Z,25.30
2023-06-27T19:17:22.403Z,25.30
2023-06-27T19:19:49.954Z,25.30
2023-06-27T19:22:17.524Z,25.30
2023-06-27T19:24:44.426Z,25.30
2023-06-27T19:27:11.386Z,25.20
2023-06-27T19:29:38.337Z,25.20
2023-06-27T19:32:05.684Z,25.20
2023-06-27T19:34:34.283Z,25.20
2023-06-27T19:37:01.174Z,25.20
2023-06-27T19:39:28.184Z,25.20
2023-06-27T19:41:56.357Z,25.20
2023-06-27T19:44:23.705Z,25.20
2023-06-27T19:46:50.639Z,25.20
2023-06-27T19:49:18.121Z,25.20
2023-06-27T19:51:45.198Z,25.10
2023-06-27T19:54:12.125Z,25.20
2023-06-27T19:56:41.069Z,25.10
2023-06-27T19:59:08.421Z,25.10
2023-06-27T20:01:35.644Z,25.10
2023-06-27T20:04:03.638Z,25.10
2023-06-27T20:06:30.632Z,25.00
2023-06-27T20:08:57.614Z,25.00
2023-06-27T20:11:24.574Z,25.00
2023-06-27T20:13:51.599Z,25.10
2023-06-27T20:16:18.601Z,25.10
2023-06-27T20:18:46.710Z,25.00
2023-06-27T20:21:13.802Z,25.00
2023-06-27T20:23:40.711Z,25.00
2023-06-27T20:26:08.837Z,25.00
2023-06-27T20:28:35.787Z,25.00
2023-06-27T20:31:03.509Z,25.00
2023-06-27T20:33:30.598Z,25.00
2023-06-27T20:35:57.558Z,25.00
2023-06-27T20:38:24.456Z,24.90
2023-06-27T20:40:51.366Z,25.00
2023-06-27T20:43:18.327Z,25.00
2023-06-27T20:45:45.375Z,24.90
2023-06-27T20:48:12.363Z,24.90
2023-06-27T20:50:39.781Z,24.90
2023-06-27T20:53:07.091Z,24.90
2023-06-27T20:55:34.040Z,24.90
2023-06-27T20:58:01.082Z,24.90
2023-06-27T21:00:31.721Z,24.80
2023-06-27T21:02:58.863Z,24.80
2023-06-27T21:05:26.002Z,24.80
2023-06-27T21:07:52.911Z,24.80
2023-06-27T21:10:20.198Z,24.80
2023-06-27T21:12:47.457Z,24.80
2023-06-27T21:15:14.409Z,24.80
2023-06-27T21:17:41.652Z,24.80
2023-06-27T21:20:09.368Z,24.80
2023-06-27T21:22:36.405Z,24.80
2023-06-27T21:25:03.394Z,24.70
2023-06-27T21:27:46.149Z,24.70
2023-06-27T21:30:18.564Z,24.70
2023-06-27T21:32:45.618Z,24.70
2023-06-27T21:35:12.636Z,24.70
2023-06-27T21:37:39.555Z,24.60
2023-06-27T21:40:07.063Z,24.60
2023-06-27T21:42:33.995Z,24.60
2023-06-27T21:45:01.000Z,24.60
2023-06-27T21:47:28.188Z,24.60
2023-06-27T21:49:59.312Z,24.60
2023-06-27T21:52:26.388Z,24.60
2023-06-27T21:54:53.338Z,24.60
2023-06-27T21:57:20.226Z,24.50
2023-06-27T21:59:47.131Z,24.50
2023-06-27T22:02:14.067Z,24.50
2023-06-27T22:04:41.155Z,24.50
2023-06-27T22:07:08.392Z,24.50
2023-06-27T22:09:35.319Z,24.50
2023-06-27T22:12:02.495Z,24.50
2023-06-27T22:14:29.427Z,24.50
2023-06-27T22:16:56.342Z,24.50
2023-06-27T22:19:23.236Z,24.40
2023-06-27T22:21:50.151Z,24.40
2023-06-27T22:24:17.087Z,24.40
2023-06-27T22:26:44.096Z,24.40
2023-06-27T22:29:10.976Z,24.40
2023-06-27T22:31:37.942Z,24.40
2023-06-27T22:34:04.914Z,24.30
2023-06-27T22:36:31.755Z,24.40
2023-06-27T22:38:58.713Z,24.30
2023-06-27T22:41:25.649Z,24.30
2023-06-27T22:43:52.688Z,24.30
2023-06-27T22:46:19.904Z,24.30
2023-06-27T22:48:46.945Z,24.30
2023-06-27T22:51:13.841Z,24.30
2023-06-27T22:53:44.630Z,24.30
2023-06-27T22:56:12.307Z,24.30
2023-06-27T22:58:39.637Z,24.30
2023-06-27T23:01:07.551Z,24.20
2023-06-27T23:03:34.625Z,24.20
2023-06-27T23:06:01.806Z,24.20
2023-06-27T23:08:29.088Z,24.20
2023-06-27T23:10:56.232Z,24.20
2023-06-27T23:13:23.178Z,24.20
2023-06-27T23:15:50.541Z,24.20
2023-06-27T23:18:20.173Z,24.20
2023-06-27T23:20:51.626Z,24.20
2023-06-27T23:23:19.242Z,24.20
2023-06-27T23:25:49.214Z,24.20
2023-06-27T23:28:17.944Z,24.10
2023-06-27T23:30:53.697Z,24.10
2023-06-27T23:33:24.971Z,24.10
2023-06-27T23:35:52.121Z,24.10
2023-06-27T23:38:20.180Z,24.10
2023-06-27T23:40:51.130Z,24.10
2023-06-27T23:43:18.090Z,24.10
2023-06-27T23:45:45.081Z,24.10
